sensor_id;sensor_type;location;lat;lon;timestamp;temperature;humidity
50816;DHT22;39717;47.324;8.788;2022-10-16T21:38:10;13.60;99.90
50816;DHT22;39717;47.324;8.788;2022-10-16T21:40:37;13.30;99.90
50816;DHT22;39717;47.324;8.788;2022-10-16T21:43:02;13.20;99.90
50816;DHT22;39717;47.324;8.788;2022-10-16T21:45:32;13.20;99.90
50816;DHT22;39717;47.324;8.788;2022-10-16T21:47:58;13.20;99.90
50816;DHT22;39717;47.324;8.788;2022-10-16T21:50:30;13.20;99.90
50816;DHT22;39717;47.324;8.788;2022-10-16T21:53:00;13.20;99.90
50816;DHT22;39717;47.324;8.788;2022-10-16T21:55:28;13.20;99.90
50816;DHT22;39717;47.324;8.788;2022-10-16T21:57:55;13.10;99.90
50816;DHT22;39717;47.324;8.788;2022-10-16T22:00:22;13.00;99.90
50816;DHT22;39717;47.324;8.788;2022-10-16T22:02:48;13.00;99.90
50816;DHT22;39717;47.324;8.788;2022-10-16T22:05:16;13.00;99.90
50816;DHT22;39717;47.324;8.788;2022-10-16T22:07:42;13.00;99.90
50816;DHT22;39717;47.324;8.788;2022-10-16T22:10:08;13.00;99.90
50816;DHT22;39717;47.324;8.788;2022-10-16T22:12:34;13.10;99.90
50816;DHT22;39717;47.324;8.788;2022-10-16T22:15:01;13.10;99.90
50816;DHT22;39717;47.324;8.788;2022-10-16T22:17:26;13.00;99.90
50816;DHT22;39717;47.324;8.788;2022-10-16T22:19:53;12.90;99.90
50816;DHT22;39717;47.324;8.788;2022-10-16T22:22:19;12.80;99.90
50816;DHT22;39717;47.324;8.788;2022-10-16T22:24:45;12.70;99.90
50816;DHT22;39717;47.324;8.788;2022-10-16T22:27:11;12.80;99.90
50816;DHT22;39717;47.324;8.788;2022-10-16T22:29:38;12.80;99.90
50816;DHT22;39717;47.324;8.788;2022-10-16T22:32:04;12.80;99.90
50816;DHT22;39717;47.324;8.788;2022-10-16T22:34:29;12.70;99.90
50816;DHT22;39717;47.324;8.788;2022-10-16T22:36:55;12.70;99.90
50816;DHT22;39717;47.324;8.788;2022-10-16T22:39:21;12.70;99.90
50816;DHT22;39717;47.324;8.788;2022-10-16T22:41:48;12.70;99.90
50816;DHT22;39717;47.324;8.788;2022-10-16T22:44:13;12.60;99.90
50816;DHT22;39717;47.324;8.788;2022-10-16T22:46:40;12.70;99.90
50816;DHT22;39717;47.324;8.788;2022-10-16T22:49:06;12.70;99.90
50816;DHT22;39717;47.324;8.788;2022-10-16T22:51:32;12.70;99.90
50816;DHT22;39717;47.324;8.788;2022-10-16T22:53:59;12.70;99.90
50816;DHT22;39717;47.324;8.788;2022-10-16T22:56:25;12.70;99.90
50816;DHT22;39717;47.324;8.788;2022-10-16T22:58:53;12.70;99.90
50816;DHT22;39717;47.324;8.788;2022-10-16T23:01:28;12.60;99.90
50816;DHT22;39717;47.324;8.788;2022-10-16T23:04:01;12.50;99.90
50816;DHT22;39717;47.324;8.788;2022-10-16T23:06:51;12.50;99.90
50816;DHT22;39717;47.324;8.788;2022-10-16T23:09:23;12.30;99.90
50816;DHT22;39717;47.324;8.788;2022-10-16T23:11:49;12.40;99.90
50816;DHT22;39717;47.324;8.788;2022-10-16T23:14:19;12.40;99.90
50816;DHT22;39717;47.324;8.788;2022-10-16T23:16:45;12.40;99.90
50816;DHT22;39717;47.324;8.788;2022-10-16T23:19:12;12.30;99.90
50816;DHT22;39717;47.324;8.788;2022-10-16T23:21:43;12.30;99.90
50816;DHT22;39717;47.324;8.788;2022-10-16T23:24:10;12.30;99.90
50816;DHT22;39717;47.324;8.788;2022-10-16T23:26:36;12.30;99.90
50816;DHT22;39717;47.324;8.788;2022-10-16T23:29:02;12.20;99.90
50816;DHT22;39717;47.324;8.788;2022-10-16T23:31:28;12.20;99.90
50816;DHT22;39717;47.324;8.788;2022-10-16T23:34:02;12.20;99.90
50816;DHT22;39717;47.324;8.788;2022-10-16T23:36:29;12.10;99.90
50816;DHT22;39717;47.324;8.788;2022-10-16T23:38:55;12.10;99.90
50816;DHT22;39717;47.324;8.788;2022-10-16T23:41:21;12.10;99.90
50816;DHT22;39717;47.324;8.788;2022-10-16T23:43:47;12.00;99.90
50816;DHT22;39717;47.324;8.788;2022-10-16T23:46:14;11.90;99.90
50816;DHT22;39717;47.324;8.788;2022-10-16T23:48:40;11.90;99.90
50816;DHT22;39717;47.324;8.788;2022-10-16T23:51:08;11.90;99.90
50816;DHT22;39717;47.324;8.788;2022-10-16T23:53:34;11.90;99.90
50816;DHT22;39717;47.324;8.788;2022-10-16T23:56:02;11.90;99.90
50816;DHT22;39717;47.324;8.788;2022-10-16T23:58:35;11.90;99.90
